Terminal Aerodrome Forecast
Issued by NWS

Home | Current Version | Previous Version | Text Only | Print | Product List | Glossary On
Versions: 1 2 3 4 5 6 7 8 9 10 11 12 13 14 15 16
000
FTUS44 KEPZ 121100
TAFTCS
TAF
KTCS 121120Z 1212/1312 31007KT P6SM SCT120 SCT250
     FM122000 12009KT P6SM VCTS SCT080CB SCT250
     FM130500 17007KT P6SM SCT100 BKN250=

USA.gov is the U.S. government's official web portal to all federal, state and local government web resources and services.